sensor_id;sensor_type;location;lat;lon;timestamp;P1;durP1;ratioP1;P2;durP2;ratioP2
22172;SDS011;11252;50.596;17.648;2022-11-20T00:01:28;184.97;;;67.07;;
22172;SDS011;11252;50.596;17.648;2022-11-20T00:03:56;178.50;;;64.93;;
22172;SDS011;11252;50.596;17.648;2022-11-20T00:06:25;161.20;;;61.60;;
22172;SDS011;11252;50.596;17.648;2022-11-20T00:08:54;141.63;;;58.17;;
22172;SDS011;11252;50.596;17.648;2022-11-20T00:11:23;133.03;;;55.53;;
22172;SDS011;11252;50.596;17.648;2022-11-20T00:13:52;120.27;;;53.50;;
22172;SDS011;11252;50.596;17.648;2022-11-20T00:16:22;112.93;;;52.27;;
22172;SDS011;11252;50.596;17.648;2022-11-20T00:18:51;117.03;;;55.03;;
22172;SDS011;11252;50.596;17.648;2022-11-20T00:21:19;151.23;;;62.03;;
22172;SDS011;11252;50.596;17.648;2022-11-20T00:23:47;174.17;;;71.67;;
22172;SDS011;11252;50.596;17.648;2022-11-20T00:26:16;174.80;;;67.93;;
22172;SDS011;11252;50.596;17.648;2022-11-20T00:28:49;142.00;;;58.50;;
22172;SDS011;11252;50.596;17.648;2022-11-20T00:31:18;127.87;;;54.33;;
22172;SDS011;11252;50.596;17.648;2022-11-20T00:33:48;141.77;;;57.33;;
22172;SDS011;11252;50.596;17.648;2022-11-20T00:36:17;131.50;;;53.40;;
22172;SDS011;11252;50.596;17.648;2022-11-20T00:38:46;111.37;;;51.33;;
22172;SDS011;11252;50.596;17.648;2022-11-20T00:41:14;115.60;;;51.97;;
22172;SDS011;11252;50.596;17.648;2022-11-20T00:43:42;158.07;;;62.37;;
22172;SDS011;11252;50.596;17.648;2022-11-20T00:46:13;189.57;;;69.80;;
22172;SDS011;11252;50.596;17.648;2022-11-20T00:48:42;150.23;;;58.67;;
22172;SDS011;11252;50.596;17.648;2022-11-20T00:51:13;142.03;;;55.83;;
22172;SDS011;11252;50.596;17.648;2022-11-20T00:53:42;132.37;;;57.20;;
22172;SDS011;11252;50.596;17.648;2022-11-20T00:56:11;123.40;;;57.40;;
22172;SDS011;11252;50.596;17.648;2022-11-20T00:58:41;112.70;;;55.00;;
22172;SDS011;11252;50.596;17.648;2022-11-20T01:01:19;112.87;;;55.57;;
22172;SDS011;11252;50.596;17.648;2022-11-20T01:03:51;145.67;;;66.30;;
22172;SDS011;11252;50.596;17.648;2022-11-20T01:06:21;141.60;;;64.50;;
22172;SDS011;11252;50.596;17.648;2022-11-20T01:08:50;160.60;;;74.87;;
22172;SDS011;11252;50.596;17.648;2022-11-20T01:11:21;130.30;;;61.53;;
22172;SDS011;11252;50.596;17.648;2022-11-20T01:13:50;120.63;;;58.73;;
22172;SDS011;11252;50.596;17.648;2022-11-20T01:16:20;125.37;;;60.90;;
22172;SDS011;11252;50.596;17.648;2022-11-20T01:18:56;121.87;;;61.70;;
22172;SDS011;11252;50.596;17.648;2022-11-20T01:21:26;123.27;;;58.83;;
22172;SDS011;11252;50.596;17.648;2022-11-20T01:23:55;164.70;;;87.37;;
22172;SDS011;11252;50.596;17.648;2022-11-20T01:26:24;131.13;;;69.23;;
22172;SDS011;11252;50.596;17.648;2022-11-20T01:28:53;126.47;;;63.00;;
22172;SDS011;11252;50.596;17.648;2022-11-20T01:34:03;117.33;;;58.67;;
22172;SDS011;11252;50.596;17.648;2022-11-20T01:36:32;127.87;;;57.43;;
22172;SDS011;11252;50.596;17.648;2022-11-20T01:39:05;112.53;;;54.83;;
22172;SDS011;11252;50.596;17.648;2022-11-20T01:41:34;119.80;;;59.50;;
22172;SDS011;11252;50.596;17.648;2022-11-20T01:44:21;122.17;;;57.27;;
22172;SDS011;11252;50.596;17.648;2022-11-20T01:47:08;123.40;;;55.50;;
22172;SDS011;11252;50.596;17.648;2022-11-20T01:49:46;115.23;;;54.87;;
22172;SDS011;11252;50.596;17.648;2022-11-20T01:52:30;119.93;;;56.37;;
22172;SDS011;11252;50.596;17.648;2022-11-20T01:55:07;120.60;;;56.70;;
22172;SDS011;11252;50.596;17.648;2022-11-20T01:57:41;118.13;;;57.53;;
22172;SDS011;11252;50.596;17.648;2022-11-20T02:00:11;123.03;;;55.23;;
22172;SDS011;11252;50.596;17.648;2022-11-20T02:02:42;138.23;;;61.93;;
22172;SDS011;11252;50.596;17.648;2022-11-20T02:07:55;124.63;;;57.13;;
22172;SDS011;11252;50.596;17.648;2022-11-20T02:10:24;131.07;;;59.20;;
22172;SDS011;11252;50.596;17.648;2022-11-20T02:12:53;119.70;;;57.27;;
22172;SDS011;11252;50.596;17.648;2022-11-20T02:15:39;141.87;;;63.73;;
22172;SDS011;11252;50.596;17.648;2022-11-20T02:18:07;144.23;;;67.37;;
22172;SDS011;11252;50.596;17.648;2022-11-20T02:20:35;134.70;;;63.13;;
22172;SDS011;11252;50.596;17.648;2022-11-20T02:23:05;145.57;;;68.70;;
22172;SDS011;11252;50.596;17.648;2022-11-20T02:25:38;182.43;;;90.47;;
22172;SDS011;11252;50.596;17.648;2022-11-20T02:28:07;180.80;;;86.13;;
22172;SDS011;11252;50.596;17.648;2022-11-20T02:30:34;166.87;;;79.07;;
22172;SDS011;11252;50.596;17.648;2022-11-20T02:33:02;147.30;;;74.13;;
22172;SDS011;11252;50.596;17.648;2022-11-20T02:37:57;150.40;;;71.93;;
22172;SDS011;11252;50.596;17.648;2022-11-20T02:40:27;142.37;;;70.53;;
22172;SDS011;11252;50.596;17.648;2022-11-20T02:42:55;167.73;;;77.03;;
22172;SDS011;11252;50.596;17.648;2022-11-20T02:45:23;188.60;;;83.33;;
22172;SDS011;11252;50.596;17.648;2022-11-20T02:47:51;176.67;;;84.43;;
22172;SDS011;11252;50.596;17.648;2022-11-20T02:50:18;171.63;;;78.07;;
22172;SDS011;11252;50.596;17.648;2022-11-20T02:52:46;140.63;;;67.87;;
22172;SDS011;11252;50.596;17.648;2022-11-20T02:55:13;126.43;;;61.50;;
22172;SDS011;11252;50.596;17.648;2022-11-20T02:57:40;126.37;;;60.00;;
22172;SDS011;11252;50.596;17.648;2022-11-20T03:00:08;125.23;;;57.97;;
22172;SDS011;11252;50.596;17.648;2022-11-20T03:02:36;110.50;;;53.83;;
22172;SDS011;11252;50.596;17.648;2022-11-20T03:05:03;106.53;;;51.53;;
22172;SDS011;11252;50.596;17.648;2022-11-20T03:07:30;104.67;;;50.27;;
22172;SDS011;11252;50.596;17.648;2022-11-20T03:09:58;109.23;;;50.83;;
22172;SDS011;11252;50.596;17.648;2022-11-20T03:12:25;101.23;;;51.10;;
22172;SDS011;11252;50.596;17.648;2022-11-20T03:14:52;107.03;;;50.73;;
22172;SDS011;11252;50.596;17.648;2022-11-20T03:17:19;129.60;;;64.10;;
22172;SDS011;11252;50.596;17.648;2022-11-20T03:19:46;130.97;;;65.03;;
22172;SDS011;11252;50.596;17.648;2022-11-20T03:22:13;131.50;;;60.10;;
22172;SDS011;11252;50.596;17.648;2022-11-20T03:24:41;126.73;;;59.97;;
22172;SDS011;11252;50.596;17.648;2022-11-20T03:27:08;123.03;;;59.13;;
22172;SDS011;11252;50.596;17.648;2022-11-20T03:29:35;122.83;;;59.37;;
22172;SDS011;11252;50.596;17.648;2022-11-20T03:32:02;128.37;;;59.17;;
22172;SDS011;11252;50.596;17.648;2022-11-20T03:34:29;113.07;;;54.10;;
22172;SDS011;11252;50.596;17.648;2022-11-20T03:36:57;106.73;;;51.77;;
22172;SDS011;11252;50.596;17.648;2022-11-20T03:39:24;114.87;;;53.60;;
22172;SDS011;11252;50.596;17.648;2022-11-20T03:41:51;117.87;;;53.73;;
22172;SDS011;11252;50.596;17.648;2022-11-20T03:44:20;104.80;;;52.30;;
22172;SDS011;11252;50.596;17.648;2022-11-20T03:46:48;101.67;;;52.17;;
22172;SDS011;11252;50.596;17.648;2022-11-20T03:49:15;93.57;;;46.57;;
22172;SDS011;11252;50.596;17.648;2022-11-20T03:51:42;90.20;;;45.27;;
22172;SDS011;11252;50.596;17.648;2022-11-20T03:54:10;94.07;;;48.83;;
22172;SDS011;11252;50.596;17.648;2022-11-20T03:56:38;114.73;;;50.63;;
22172;SDS011;11252;50.596;17.648;2022-11-20T03:59:06;107.30;;;50.00;;
22172;SDS011;11252;50.596;17.648;2022-11-20T04:01:34;103.83;;;48.10;;
22172;SDS011;11252;50.596;17.648;2022-11-20T04:04:03;105.07;;;51.17;;
22172;SDS011;11252;50.596;17.648;2022-11-20T04:06:35;102.10;;;50.60;;
22172;SDS011;11252;50.596;17.648;2022-11-20T04:09:03;112.17;;;53.00;;
22172;SDS011;11252;50.596;17.648;2022-11-20T04:11:32;105.70;;;51.30;;
22172;SDS011;11252;50.596;17.648;2022-11-20T04:14:02;114.00;;;52.07;;
22172;SDS011;11252;50.596;17.648;2022-11-20T04:16:32;107.77;;;52.03;;
22172;SDS011;11252;50.596;17.648;2022-11-20T04:19:01;117.13;;;55.97;;
22172;SDS011;11252;50.596;17.648;2022-11-20T04:21:29;121.70;;;56.23;;
22172;SDS011;11252;50.596;17.648;2022-11-20T04:23:57;116.53;;;53.47;;
22172;SDS011;11252;50.596;17.648;2022-11-20T04:26:25;111.23;;;52.77;;
22172;SDS011;11252;50.596;17.648;2022-11-20T04:28:53;114.73;;;53.37;;
22172;SDS011;11252;50.596;17.648;2022-11-20T04:31:22;107.10;;;50.20;;
22172;SDS011;11252;50.596;17.648;2022-11-20T04:33:51;105.40;;;48.67;;
22172;SDS011;11252;50.596;17.648;2022-11-20T04:36:19;100.70;;;50.03;;
22172;SDS011;11252;50.596;17.648;2022-11-20T04:38:51;109.23;;;50.47;;
22172;SDS011;11252;50.596;17.648;2022-11-20T04:41:23;104.60;;;52.87;;
22172;SDS011;11252;50.596;17.648;2022-11-20T04:43:52;103.43;;;53.27;;
22172;SDS011;11252;50.596;17.648;2022-11-20T04:46:26;109.63;;;52.33;;
22172;SDS011;11252;50.596;17.648;2022-11-20T04:48:54;113.33;;;53.57;;
22172;SDS011;11252;50.596;17.648;2022-11-20T04:51:21;103.20;;;52.23;;
22172;SDS011;11252;50.596;17.648;2022-11-20T04:53:49;108.93;;;52.07;;
22172;SDS011;11252;50.596;17.648;2022-11-20T04:56:16;103.80;;;50.40;;
22172;SDS011;11252;50.596;17.648;2022-11-20T04:58:44;112.30;;;51.67;;
22172;SDS011;11252;50.596;17.648;2022-11-20T05:01:15;104.57;;;50.17;;
22172;SDS011;11252;50.596;17.648;2022-11-20T05:03:47;102.07;;;49.53;;
22172;SDS011;11252;50.596;17.648;2022-11-20T05:06:15;99.80;;;49.27;;
22172;SDS011;11252;50.596;17.648;2022-11-20T05:08:44;107.13;;;51.67;;
22172;SDS011;11252;50.596;17.648;2022-11-20T05:11:12;102.97;;;49.77;;
22172;SDS011;11252;50.596;17.648;2022-11-20T05:13:42;107.77;;;51.50;;
22172;SDS011;11252;50.596;17.648;2022-11-20T05:16:10;109.73;;;49.57;;
22172;SDS011;11252;50.596;17.648;2022-11-20T05:18:42;103.50;;;49.53;;
22172;SDS011;11252;50.596;17.648;2022-11-20T05:21:10;101.27;;;49.57;;
22172;SDS011;11252;50.596;17.648;2022-11-20T05:23:38;114.83;;;54.80;;
22172;SDS011;11252;50.596;17.648;2022-11-20T05:26:07;120.50;;;56.50;;
22172;SDS011;11252;50.596;17.648;2022-11-20T05:28:38;99.97;;;50.77;;
22172;SDS011;11252;50.596;17.648;2022-11-20T05:33:34;106.50;;;53.30;;
22172;SDS011;11252;50.596;17.648;2022-11-20T05:36:02;116.90;;;57.03;;
22172;SDS011;11252;50.596;17.648;2022-11-20T05:38:30;141.27;;;64.90;;
22172;SDS011;11252;50.596;17.648;2022-11-20T05:41:11;158.97;;;70.90;;
22172;SDS011;11252;50.596;17.648;2022-11-20T05:43:43;155.20;;;72.63;;
22172;SDS011;11252;50.596;17.648;2022-11-20T05:46:14;97.43;;;47.97;;
22172;SDS011;11252;50.596;17.648;2022-11-20T05:48:47;137.03;;;64.17;;
22172;SDS011;11252;50.596;17.648;2022-11-20T05:51:15;116.20;;;54.83;;
22172;SDS011;11252;50.596;17.648;2022-11-20T05:53:44;109.87;;;51.00;;
22172;SDS011;11252;50.596;17.648;2022-11-20T05:56:16;112.47;;;51.40;;
22172;SDS011;11252;50.596;17.648;2022-11-20T05:58:45;110.27;;;55.80;;
22172;SDS011;11252;50.596;17.648;2022-11-20T06:01:22;115.83;;;55.87;;
22172;SDS011;11252;50.596;17.648;2022-11-20T06:03:51;125.07;;;59.37;;
22172;SDS011;11252;50.596;17.648;2022-11-20T06:06:19;119.07;;;58.33;;
22172;SDS011;11252;50.596;17.648;2022-11-20T06:08:47;122.13;;;58.80;;
22172;SDS011;11252;50.596;17.648;2022-11-20T06:11:15;114.17;;;57.13;;
22172;SDS011;11252;50.596;17.648;2022-11-20T06:13:43;122.90;;;59.00;;
22172;SDS011;11252;50.596;17.648;2022-11-20T06:16:11;145.93;;;75.50;;
22172;SDS011;11252;50.596;17.648;2022-11-20T06:18:40;144.23;;;73.53;;
22172;SDS011;11252;50.596;17.648;2022-11-20T06:21:11;228.60;;;96.10;;
22172;SDS011;11252;50.596;17.648;2022-11-20T06:23:41;211.50;;;87.37;;
22172;SDS011;11252;50.596;17.648;2022-11-20T06:26:20;200.53;;;76.90;;
22172;SDS011;11252;50.596;17.648;2022-11-20T06:28:49;230.53;;;83.83;;
22172;SDS011;11252;50.596;17.648;2022-11-20T06:31:18;203.93;;;81.37;;
22172;SDS011;11252;50.596;17.648;2022-11-20T06:33:49;196.20;;;78.93;;
22172;SDS011;11252;50.596;17.648;2022-11-20T06:36:18;223.03;;;90.90;;
22172;SDS011;11252;50.596;17.648;2022-11-20T06:38:48;257.03;;;104.90;;
22172;SDS011;11252;50.596;17.648;2022-11-20T06:41:17;202.20;;;88.97;;
22172;SDS011;11252;50.596;17.648;2022-11-20T06:43:46;142.87;;;71.10;;
22172;SDS011;11252;50.596;17.648;2022-11-20T06:46:14;146.03;;;69.57;;
22172;SDS011;11252;50.596;17.648;2022-11-20T06:48:46;133.30;;;67.73;;
22172;SDS011;11252;50.596;17.648;2022-11-20T06:51:14;128.13;;;59.97;;
22172;SDS011;11252;50.596;17.648;2022-11-20T06:53:42;114.57;;;55.23;;
22172;SDS011;11252;50.596;17.648;2022-11-20T06:56:09;114.17;;;56.00;;
22172;SDS011;11252;50.596;17.648;2022-11-20T06:58:36;113.47;;;57.10;;
22172;SDS011;11252;50.596;17.648;2022-11-20T07:01:06;113.70;;;56.20;;
22172;SDS011;11252;50.596;17.648;2022-11-20T07:03:35;124.43;;;59.97;;
22172;SDS011;11252;50.596;17.648;2022-11-20T07:06:03;131.10;;;62.30;;
22172;SDS011;11252;50.596;17.648;2022-11-20T07:08:33;132.57;;;66.77;;
22172;SDS011;11252;50.596;17.648;2022-11-20T07:11:02;126.20;;;65.80;;
22172;SDS011;11252;50.596;17.648;2022-11-20T07:13:31;128.20;;;63.83;;
22172;SDS011;11252;50.596;17.648;2022-11-20T07:16:00;121.67;;;60.47;;
22172;SDS011;11252;50.596;17.648;2022-11-20T07:18:29;117.07;;;58.30;;
22172;SDS011;11252;50.596;17.648;2022-11-20T07:20:59;115.70;;;58.73;;
22172;SDS011;11252;50.596;17.648;2022-11-20T07:23:30;114.73;;;56.93;;
22172;SDS011;11252;50.596;17.648;2022-11-20T07:25:57;121.30;;;61.73;;
22172;SDS011;11252;50.596;17.648;2022-11-20T07:28:29;169.97;;;87.13;;
22172;SDS011;11252;50.596;17.648;2022-11-20T07:30:56;175.30;;;87.63;;
22172;SDS011;11252;50.596;17.648;2022-11-20T07:33:23;144.90;;;67.93;;
22172;SDS011;11252;50.596;17.648;2022-11-20T07:35:50;123.97;;;59.13;;
22172;SDS011;11252;50.596;17.648;2022-11-20T07:38:17;94.57;;;47.77;;
22172;SDS011;11252;50.596;17.648;2022-11-20T07:40:45;129.57;;;65.33;;
22172;SDS011;11252;50.596;17.648;2022-11-20T07:43:12;99.83;;;50.60;;
22172;SDS011;11252;50.596;17.648;2022-11-20T07:45:39;93.40;;;46.27;;
22172;SDS011;11252;50.596;17.648;2022-11-20T07:48:07;89.33;;;51.47;;
22172;SDS011;11252;50.596;17.648;2022-11-20T07:50:34;103.00;;;57.13;;
22172;SDS011;11252;50.596;17.648;2022-11-20T07:53:04;104.40;;;51.87;;
22172;SDS011;11252;50.596;17.648;2022-11-20T07:55:32;118.63;;;66.20;;
22172;SDS011;11252;50.596;17.648;2022-11-20T07:58:02;140.20;;;74.77;;
22172;SDS011;11252;50.596;17.648;2022-11-20T08:00:30;123.37;;;60.10;;
22172;SDS011;11252;50.596;17.648;2022-11-20T08:02:57;117.60;;;57.10;;
22172;SDS011;11252;50.596;17.648;2022-11-20T08:05:25;180.40;;;81.90;;
22172;SDS011;11252;50.596;17.648;2022-11-20T08:07:52;141.70;;;75.13;;
22172;SDS011;11252;50.596;17.648;2022-11-20T08:10:19;111.30;;;55.97;;
22172;SDS011;11252;50.596;17.648;2022-11-20T08:12:50;134.83;;;71.13;;
22172;SDS011;11252;50.596;17.648;2022-11-20T08:15:38;143.90;;;75.30;;
22172;SDS011;11252;50.596;17.648;2022-11-20T08:18:07;133.10;;;72.67;;
22172;SDS011;11252;50.596;17.648;2022-11-20T08:20:57;112.53;;;56.47;;
22172;SDS011;11252;50.596;17.648;2022-11-20T08:23:27;108.73;;;55.03;;
22172;SDS011;11252;50.596;17.648;2022-11-20T08:25:55;132.30;;;67.40;;
22172;SDS011;11252;50.596;17.648;2022-11-20T08:28:22;125.33;;;63.67;;
22172;SDS011;11252;50.596;17.648;2022-11-20T08:30:49;126.60;;;64.67;;
22172;SDS011;11252;50.596;17.648;2022-11-20T08:33:17;167.03;;;87.83;;
22172;SDS011;11252;50.596;17.648;2022-11-20T08:35:46;149.23;;;72.20;;
22172;SDS011;11252;50.596;17.648;2022-11-20T08:38:14;119.97;;;55.30;;
22172;SDS011;11252;50.596;17.648;2022-11-20T08:40:41;122.07;;;62.83;;
22172;SDS011;11252;50.596;17.648;2022-11-20T08:43:28;122.40;;;57.47;;
22172;SDS011;11252;50.596;17.648;2022-11-20T08:45:56;97.97;;;51.63;;
22172;SDS011;11252;50.596;17.648;2022-11-20T08:48:23;80.13;;;42.10;;
22172;SDS011;11252;50.596;17.648;2022-11-20T08:50:51;87.77;;;44.50;;
22172;SDS011;11252;50.596;17.648;2022-11-20T08:53:18;61.73;;;34.97;;
22172;SDS011;11252;50.596;17.648;2022-11-20T08:55:46;104.93;;;52.43;;
22172;SDS011;11252;50.596;17.648;2022-11-20T08:58:13;81.30;;;44.03;;
22172;SDS011;11252;50.596;17.648;2022-11-20T09:00:40;71.33;;;36.23;;
22172;SDS011;11252;50.596;17.648;2022-11-20T09:03:08;51.00;;;29.27;;
22172;SDS011;11252;50.596;17.648;2022-11-20T09:05:36;43.53;;;25.40;;
22172;SDS011;11252;50.596;17.648;2022-11-20T09:08:03;43.63;;;26.00;;
22172;SDS011;11252;50.596;17.648;2022-11-20T09:10:30;39.43;;;22.57;;
22172;SDS011;11252;50.596;17.648;2022-11-20T09:12:58;53.03;;;29.70;;
22172;SDS011;11252;50.596;17.648;2022-11-20T09:15:26;52.90;;;28.37;;
22172;SDS011;11252;50.596;17.648;2022-11-20T09:17:53;48.10;;;26.77;;
22172;SDS011;11252;50.596;17.648;2022-11-20T09:20:21;49.83;;;29.53;;
22172;SDS011;11252;50.596;17.648;2022-11-20T09:22:48;46.17;;;28.70;;
22172;SDS011;11252;50.596;17.648;2022-11-20T09:25:16;38.37;;;24.90;;
22172;SDS011;11252;50.596;17.648;2022-11-20T09:27:43;75.00;;;42.93;;
22172;SDS011;11252;50.596;17.648;2022-11-20T09:30:13;61.63;;;34.63;;
22172;SDS011;11252;50.596;17.648;2022-11-20T09:32:41;41.57;;;29.30;;
22172;SDS011;11252;50.596;17.648;2022-11-20T09:35:09;41.40;;;27.40;;
22172;SDS011;11252;50.596;17.648;2022-11-20T09:37:37;46.00;;;30.63;;
22172;SDS011;11252;50.596;17.648;2022-11-20T09:40:05;38.57;;;23.53;;
22172;SDS011;11252;50.596;17.648;2022-11-20T09:42:37;49.97;;;31.87;;
22172;SDS011;11252;50.596;17.648;2022-11-20T09:50:28;36.00;;;24.43;;
22172;SDS011;11252;50.596;17.648;2022-11-20T09:56:06;31.53;;;22.47;;
22172;SDS011;11252;50.596;17.648;2022-11-20T09:58:41;29.97;;;21.30;;
22172;SDS011;11252;50.596;17.648;2022-11-20T10:01:16;36.17;;;24.33;;
22172;SDS011;11252;50.596;17.648;2022-11-20T10:03:57;52.60;;;34.77;;
22172;SDS011;11252;50.596;17.648;2022-11-20T10:06:30;45.47;;;32.23;;
22172;SDS011;11252;50.596;17.648;2022-11-20T10:09:03;57.80;;;35.60;;
22172;SDS011;11252;50.596;17.648;2022-11-20T10:11:48;41.90;;;29.33;;
22172;SDS011;11252;50.596;17.648;2022-11-20T10:15:17;55.20;;;38.13;;
22172;SDS011;11252;50.596;17.648;2022-11-20T10:17:51;35.50;;;24.93;;
22172;SDS011;11252;50.596;17.648;2022-11-20T10:20:20;46.60;;;30.37;;
22172;SDS011;11252;50.596;17.648;2022-11-20T10:23:11;31.77;;;21.30;;
22172;SDS011;11252;50.596;17.648;2022-11-20T10:26:01;31.73;;;22.20;;
22172;SDS011;11252;50.596;17.648;2022-11-20T10:31:39;30.10;;;20.87;;
22172;SDS011;11252;50.596;17.648;2022-11-20T10:40:02;30.40;;;18.90;;
22172;SDS011;11252;50.596;17.648;2022-11-20T10:42:56;22.03;;;14.33;;
22172;SDS011;11252;50.596;17.648;2022-11-20T10:51:27;36.17;;;21.07;;
22172;SDS011;11252;50.596;17.648;2022-11-20T10:53:54;31.43;;;17.27;;
22172;SDS011;11252;50.596;17.648;2022-11-20T10:56:38;45.80;;;23.40;;
22172;SDS011;11252;50.596;17.648;2022-11-20T11:02:19;28.07;;;15.60;;
22172;SDS011;11252;50.596;17.648;2022-11-20T11:04:54;52.77;;;29.63;;
22172;SDS011;11252;50.596;17.648;2022-11-20T11:07:22;34.87;;;19.80;;
22172;SDS011;11252;50.596;17.648;2022-11-20T11:09:55;33.17;;;19.07;;
22172;SDS011;11252;50.596;17.648;2022-11-20T11:12:24;44.43;;;27.07;;
22172;SDS011;11252;50.596;17.648;2022-11-20T11:14:54;33.67;;;19.17;;
22172;SDS011;11252;50.596;17.648;2022-11-20T11:17:27;31.20;;;17.57;;
22172;SDS011;11252;50.596;17.648;2022-11-20T11:22:45;24.40;;;15.43;;
22172;SDS011;11252;50.596;17.648;2022-11-20T11:25:31;25.27;;;17.97;;
22172;SDS011;11252;50.596;17.648;2022-11-20T11:28:03;20.37;;;13.30;;
22172;SDS011;11252;50.596;17.648;2022-11-20T11:30:46;39.53;;;22.83;;
22172;SDS011;11252;50.596;17.648;2022-11-20T11:35:56;28.73;;;16.40;;
22172;SDS011;11252;50.596;17.648;2022-11-20T11:38:30;25.90;;;15.43;;
22172;SDS011;11252;50.596;17.648;2022-11-20T11:41:04;23.57;;;15.27;;
22172;SDS011;11252;50.596;17.648;2022-11-20T11:43:34;25.73;;;15.57;;
22172;SDS011;11252;50.596;17.648;2022-11-20T11:51:56;67.83;;;29.23;;
22172;SDS011;11252;50.596;17.648;2022-11-20T11:54:54;25.80;;;16.33;;
22172;SDS011;11252;50.596;17.648;2022-11-20T11:57:34;29.57;;;18.27;;
22172;SDS011;11252;50.596;17.648;2022-11-20T12:00:13;36.73;;;20.27;;
22172;SDS011;11252;50.596;17.648;2022-11-20T12:16:03;36.10;;;23.97;;
22172;SDS011;11252;50.596;17.648;2022-11-20T12:18:31;30.23;;;19.23;;
22172;SDS011;11252;50.596;17.648;2022-11-20T12:21:04;28.03;;;16.60;;
22172;SDS011;11252;50.596;17.648;2022-11-20T12:26:22;29.00;;;19.57;;
22172;SDS011;11252;50.596;17.648;2022-11-20T12:50:37;35.40;;;22.50;;
22172;SDS011;11252;50.596;17.648;2022-11-20T12:53:44;31.10;;;19.97;;
22172;SDS011;11252;50.596;17.648;2022-11-20T12:56:38;35.13;;;21.43;;
22172;SDS011;11252;50.596;17.648;2022-11-20T13:02:18;33.17;;;21.20;;
22172;SDS011;11252;50.596;17.648;2022-11-20T13:07:29;160.63;;;73.40;;
22172;SDS011;11252;50.596;17.648;2022-11-20T13:09:58;170.93;;;76.70;;
22172;SDS011;11252;50.596;17.648;2022-11-20T13:15:26;56.63;;;30.57;;
22172;SDS011;11252;50.596;17.648;2022-11-20T13:17:59;33.13;;;20.00;;
22172;SDS011;11252;50.596;17.648;2022-11-20T13:20:29;36.53;;;22.10;;
22172;SDS011;11252;50.596;17.648;2022-11-20T13:22:57;32.27;;;18.83;;
22172;SDS011;11252;50.596;17.648;2022-11-20T13:27:57;32.20;;;20.47;;
22172;SDS011;11252;50.596;17.648;2022-11-20T13:30:28;36.47;;;23.17;;
22172;SDS011;11252;50.596;17.648;2022-11-20T13:35:35;47.10;;;28.67;;
22172;SDS011;11252;50.596;17.648;2022-11-20T13:38:07;42.03;;;23.47;;
22172;SDS011;11252;50.596;17.648;2022-11-20T13:40:38;36.43;;;21.43;;
22172;SDS011;11252;50.596;17.648;2022-11-20T13:45:56;30.83;;;20.00;;
22172;SDS011;11252;50.596;17.648;2022-11-20T13:48:33;40.07;;;22.70;;
22172;SDS011;11252;50.596;17.648;2022-11-20T14:00:20;39.83;;;24.40;;
22172;SDS011;11252;50.596;17.648;2022-11-20T14:02:59;125.97;;;72.37;;
22172;SDS011;11252;50.596;17.648;2022-11-20T14:06:28;93.97;;;65.00;;
22172;SDS011;11252;50.596;17.648;2022-11-20T14:08:58;292.07;;;212.97;;
22172;SDS011;11252;50.596;17.648;2022-11-20T14:11:29;99.67;;;70.63;;
22172;SDS011;11252;50.596;17.648;2022-11-20T14:14:02;100.77;;;71.30;;
22172;SDS011;11252;50.596;17.648;2022-11-20T14:16:32;82.40;;;44.67;;
22172;SDS011;11252;50.596;17.648;2022-11-20T14:21:46;64.93;;;33.70;;
22172;SDS011;11252;50.596;17.648;2022-11-20T14:24:18;150.90;;;73.53;;
22172;SDS011;11252;50.596;17.648;2022-11-20T14:26:51;126.77;;;65.60;;
22172;SDS011;11252;50.596;17.648;2022-11-20T14:29:20;175.27;;;69.70;;
22172;SDS011;11252;50.596;17.648;2022-11-20T14:31:54;145.20;;;54.17;;
22172;SDS011;11252;50.596;17.648;2022-11-20T14:34:26;93.60;;;45.07;;
22172;SDS011;11252;50.596;17.648;2022-11-20T14:36:56;81.97;;;38.03;;
22172;SDS011;11252;50.596;17.648;2022-11-20T14:39:35;133.10;;;55.20;;
22172;SDS011;11252;50.596;17.648;2022-11-20T14:42:13;236.33;;;86.47;;
22172;SDS011;11252;50.596;17.648;2022-11-20T14:44:43;172.53;;;78.27;;
22172;SDS011;11252;50.596;17.648;2022-11-20T14:47:12;73.23;;;36.37;;
22172;SDS011;11252;50.596;17.648;2022-11-20T14:49:41;54.80;;;31.50;;
22172;SDS011;11252;50.596;17.648;2022-11-20T14:52:16;34.77;;;21.20;;
22172;SDS011;11252;50.596;17.648;2022-11-20T14:54:58;54.90;;;31.20;;
22172;SDS011;11252;50.596;17.648;2022-11-20T14:57:32;76.13;;;40.23;;
22172;SDS011;11252;50.596;17.648;2022-11-20T15:02:47;76.57;;;43.67;;
22172;SDS011;11252;50.596;17.648;2022-11-20T15:05:16;93.57;;;50.67;;
22172;SDS011;11252;50.596;17.648;2022-11-20T15:08:19;94.60;;;52.00;;
22172;SDS011;11252;50.596;17.648;2022-11-20T15:10:50;164.23;;;94.27;;
22172;SDS011;11252;50.596;17.648;2022-11-20T15:13:25;289.83;;;158.93;;
22172;SDS011;11252;50.596;17.648;2022-11-20T15:15:57;172.30;;;99.37;;
22172;SDS011;11252;50.596;17.648;2022-11-20T15:18:28;111.53;;;57.10;;
22172;SDS011;11252;50.596;17.648;2022-11-20T15:20:56;97.20;;;50.37;;
22172;SDS011;11252;50.596;17.648;2022-11-20T15:23:27;126.90;;;62.63;;
22172;SDS011;11252;50.596;17.648;2022-11-20T15:25:55;140.73;;;61.93;;
22172;SDS011;11252;50.596;17.648;2022-11-20T15:28:27;161.67;;;78.03;;
22172;SDS011;11252;50.596;17.648;2022-11-20T15:31:00;213.00;;;121.53;;
22172;SDS011;11252;50.596;17.648;2022-11-20T15:33:28;237.00;;;135.77;;
22172;SDS011;11252;50.596;17.648;2022-11-20T15:35:56;262.23;;;147.00;;
22172;SDS011;11252;50.596;17.648;2022-11-20T15:38:23;235.30;;;120.10;;
22172;SDS011;11252;50.596;17.648;2022-11-20T15:40:51;183.60;;;87.63;;
22172;SDS011;11252;50.596;17.648;2022-11-20T15:43:18;108.53;;;59.27;;
22172;SDS011;11252;50.596;17.648;2022-11-20T15:45:46;211.37;;;101.90;;
22172;SDS011;11252;50.596;17.648;2022-11-20T15:48:20;219.17;;;104.13;;
22172;SDS011;11252;50.596;17.648;2022-11-20T15:53:22;130.87;;;57.67;;
22172;SDS011;11252;50.596;17.648;2022-11-20T15:55:49;100.77;;;52.93;;
22172;SDS011;11252;50.596;17.648;2022-11-20T15:58:16;163.00;;;62.90;;
22172;SDS011;11252;50.596;17.648;2022-11-20T16:00:44;174.93;;;65.63;;
22172;SDS011;11252;50.596;17.648;2022-11-20T16:03:12;194.07;;;74.40;;
22172;SDS011;11252;50.596;17.648;2022-11-20T16:05:40;204.40;;;78.23;;
22172;SDS011;11252;50.596;17.648;2022-11-20T16:08:09;208.87;;;83.03;;
22172;SDS011;11252;50.596;17.648;2022-11-20T16:10:37;197.20;;;76.63;;
22172;SDS011;11252;50.596;17.648;2022-11-20T16:13:15;218.63;;;82.83;;
22172;SDS011;11252;50.596;17.648;2022-11-20T16:16:06;137.33;;;54.27;;
22172;SDS011;11252;50.596;17.648;2022-11-20T16:18:37;154.07;;;59.37;;
22172;SDS011;11252;50.596;17.648;2022-11-20T16:21:10;80.23;;;35.67;;
22172;SDS011;11252;50.596;17.648;2022-11-20T16:23:39;85.80;;;41.60;;